createdAt,value
2022-10-05T00:02:21.157Z,82.65
2022-10-05T00:04:49.322Z,82.55
2022-10-05T00:07:18.664Z,83.16
2022-10-05T00:09:48.594Z,83.09
2022-10-05T00:12:17.494Z,82.91
2022-10-05T00:14:45.587Z,82.85
2022-10-05T00:17:20.738Z,82.80
2022-10-05T00:19:52.075Z,82.71
2022-10-05T00:22:38.377Z,83.45
2022-10-05T00:25:14.539Z,83.27
2022-10-05T00:27:41.654Z,83.30
2022-10-05T00:30:17.356Z,83.54
2022-10-05T00:32:44.966Z,84.34
2022-10-05T00:35:12.571Z,84.24
2022-10-05T00:37:39.285Z,84.44
2022-10-05T00:40:35.942Z,84.26
2022-10-05T00:43:17.892Z,84.56
2022-10-05T00:45:52.941Z,84.22
2022-10-05T00:48:46.606Z,84.08
2022-10-05T00:51:21.124Z,84.41
2022-10-05T00:53:59.947Z,84.42
2022-10-05T00:56:56.930Z,84.16
2022-10-05T00:59:29.381Z,84.56
2022-10-05T01:02:22.143Z,84.19
2022-10-05T01:04:48.638Z,83.85
2022-10-05T01:07:18.720Z,84.09
2022-10-05T01:09:57.145Z,84.56
2022-10-05T01:12:45.331Z,84.40
2022-10-05T01:15:37.178Z,84.28
2022-10-05T01:18:16.552Z,84.35
2022-10-05T01:21:06.462Z,84.19
2022-10-05T01:23:39.243Z,84.31
2022-10-05T01:26:26.171Z,84.57
2022-10-05T01:29:02.585Z,84.51
2022-10-05T01:31:40.240Z,84.49
2022-10-05T01:34:15.915Z,84.25
2022-10-05T01:37:09.513Z,84.51
2022-10-05T01:40:06.450Z,84.55
2022-10-05T01:42:49.825Z,84.84
2022-10-05T01:45:28.485Z,84.37
2022-10-05T01:48:16.650Z,84.81
2022-10-05T01:51:09.015Z,84.94
2022-10-05T01:53:38.376Z,84.91
2022-10-05T01:56:15.419Z,84.61
2022-10-05T01:58:48.980Z,85.28
2022-10-05T02:01:25.360Z,85.22
2022-10-05T02:04:01.386Z,85.32
2022-10-05T02:06:32.370Z,85.42
2022-10-05T02:09:09.065Z,85.49
2022-10-05T02:11:39.749Z,85.64
2022-10-05T02:14:18.504Z,85.52
2022-10-05T02:16:49.689Z,85.41
2022-10-05T02:19:35.050Z,85.89
2022-10-05T02:22:13.531Z,85.63
2022-10-05T02:24:45.405Z,85.79
2022-10-05T02:27:18.573Z,85.53
2022-10-05T02:29:48.355Z,85.27
2022-10-05T02:32:40.104Z,85.43
2022-10-05T02:35:16.072Z,85.48
2022-10-05T02:38:04.569Z,85.65
2022-10-05T02:41:23.201Z,84.32
2022-10-05T02:44:08.516Z,84.77
2022-10-05T02:46:38.282Z,84.58
2022-10-05T02:49:08.671Z,84.16
2022-10-05T02:51:57.915Z,84.80
2022-10-05T02:54:27.178Z,84.49
2022-10-05T02:57:00.184Z,84.43
2022-10-05T02:59:34.914Z,84.02
2022-10-05T03:02:24.771Z,83.83
2022-10-05T03:05:30.903Z,82.83
2022-10-05T03:08:06.224Z,83.54
2022-10-05T03:11:11.240Z,83.13
2022-10-05T03:13:37.700Z,82.85
2022-10-05T03:16:15.640Z,83.61
2022-10-05T03:19:11.561Z,82.88
2022-10-05T03:21:47.069Z,83.44
2022-10-05T03:24:44.727Z,83.17
2022-10-05T03:27:22.999Z,83.30
2022-10-05T03:29:52.574Z,83.35
2022-10-05T03:32:44.012Z,84.17
2022-10-05T03:35:35.333Z,84.11
2022-10-05T03:39:02.273Z,84.49
2022-10-05T03:41:36.810Z,83.84
2022-10-05T03:44:36.920Z,83.54
2022-10-05T03:47:25.350Z,83.50
2022-10-05T03:50:12.131Z,83.37
2022-10-05T03:52:46.046Z,83.38
2022-10-05T03:55:30.947Z,83.91
2022-10-05T03:58:03.154Z,83.99
2022-10-05T04:00:31.895Z,83.52
2022-10-05T04:03:05.418Z,83.67
2022-10-05T04:05:38.182Z,83.97
2022-10-05T04:08:18.050Z,83.63
2022-10-05T04:10:52.018Z,84.31
2022-10-05T04:13:22.369Z,84.16
2022-10-05T04:15:51.864Z,84.68
2022-10-05T04:18:26.476Z,83.89
2022-10-05T04:20:58.926Z,84.52
2022-10-05T04:23:35.011Z,84.14
2022-10-05T04:26:10.526Z,84.81
2022-10-05T04:28:51.083Z,84.71
2022-10-05T04:31:38.313Z,84.25
2022-10-05T04:34:30.203Z,84.40
2022-10-05T04:37:06.131Z,84.33
2022-10-05T04:40:05.235Z,84.65
2022-10-05T04:42:44.395Z,84.53
2022-10-05T04:45:33.915Z,84.60
2022-10-05T04:48:37.761Z,84.20
2022-10-05T04:51:19.671Z,84.34
2022-10-05T04:54:11.628Z,84.86
2022-10-05T04:56:47.596Z,84.92
2022-10-05T04:59:23.321Z,85.09
2022-10-05T05:02:12.800Z,85.01
2022-10-05T05:04:55.045Z,83.02
2022-10-05T05:07:30.408Z,82.08
2022-10-05T05:10:18.258Z,80.74
2022-10-05T05:13:03.781Z,79.84
2022-10-05T05:16:01.410Z,79.06
2022-10-05T05:18:54.466Z,77.13
2022-10-05T05:21:40.931Z,76.44
2022-10-05T05:24:20.321Z,76.86
2022-10-05T05:27:01.239Z,76.75
2022-10-05T05:29:42.902Z,77.59
2022-10-05T05:32:23.420Z,77.58
2022-10-05T05:34:59.111Z,78.59
2022-10-05T05:37:36.542Z,78.28
2022-10-05T05:40:12.175Z,79.28
2022-10-05T05:42:57.436Z,80.42
2022-10-05T05:45:29.108Z,80.74
2022-10-05T05:47:58.866Z,80.34
2022-10-05T05:50:41.169Z,80.61
2022-10-05T05:53:14.779Z,80.42
2022-10-05T05:55:46.520Z,80.77
2022-10-05T05:58:27.445Z,80.08
2022-10-05T06:01:20.211Z,81.00
2022-10-05T06:04:14.787Z,82.05
2022-10-05T06:06:47.113Z,81.89
2022-10-05T06:09:16.735Z,82.01
2022-10-05T06:11:51.110Z,82.29
2022-10-05T06:14:28.879Z,81.81
2022-10-05T06:16:59.979Z,82.08
2022-10-05T06:19:28.924Z,82.25
2022-10-05T06:22:12.335Z,81.71
2022-10-05T06:25:04.404Z,81.43
2022-10-05T06:27:57.832Z,80.82
2022-10-05T06:30:29.667Z,81.10
2022-10-05T06:33:12.719Z,80.31
2022-10-05T06:36:12.884Z,80.47
2022-10-05T06:39:03.173Z,80.63
2022-10-05T06:41:54.692Z,80.04
2022-10-05T06:44:46.026Z,80.13
2022-10-05T06:47:30.896Z,79.54
2022-10-05T06:50:36.745Z,78.76
2022-10-05T06:53:34.772Z,78.91
2022-10-05T06:56:20.088Z,79.08
2022-10-05T06:59:00.830Z,79.41
2022-10-05T07:01:49.539Z,79.65
2022-10-05T07:04:24.180Z,80.69
2022-10-05T07:07:17.211Z,80.83
2022-10-05T07:10:00.215Z,80.46
2022-10-05T07:13:02.983Z,80.50
2022-10-05T07:15:42.862Z,80.47
2022-10-05T07:18:29.610Z,80.62
2022-10-05T07:21:27.401Z,80.71
2022-10-05T07:24:03.150Z,80.04
2022-10-05T07:26:32.499Z,78.43
2022-10-05T07:29:07.872Z,79.14
2022-10-05T07:31:54.682Z,79.24
2022-10-05T07:34:30.239Z,79.23
2022-10-05T07:37:30.669Z,78.79
2022-10-05T07:40:06.888Z,78.50
2022-10-05T07:42:51.779Z,78.49
2022-10-05T07:45:45.533Z,78.30
2022-10-05T07:48:17.079Z,78.50
2022-10-05T07:50:43.548Z,78.59
2022-10-05T07:53:22.644Z,78.17
2022-10-05T07:55:54.660Z,77.89
2022-10-05T07:58:39.769Z,78.27
2022-10-05T08:01:26.941Z,78.03
2022-10-05T08:04:00.541Z,78.44
2022-10-05T08:06:39.070Z,78.48
2022-10-05T08:09:39.082Z,77.85
2022-10-05T08:12:28.194Z,77.17
2022-10-05T08:14:57.395Z,76.71
2022-10-05T08:17:53.554Z,77.11
2022-10-05T08:20:54.770Z,77.17
2022-10-05T08:23:21.973Z,76.98
2022-10-05T08:25:54.296Z,77.29
2022-10-05T08:28:28.268Z,77.99
2022-10-05T08:31:11.830Z,78.13
2022-10-05T08:33:52.664Z,78.12
2022-10-05T08:36:29.151Z,78.44
2022-10-05T08:38:59.718Z,78.28
2022-10-05T08:41:56.946Z,77.88
2022-10-05T08:44:45.872Z,78.07
2022-10-05T08:47:19.749Z,77.83
2022-10-05T08:50:14.448Z,77.83
2022-10-05T08:53:19.789Z,78.39
2022-10-05T08:56:00.973Z,77.74
2022-10-05T08:59:10.676Z,78.23
2022-10-05T09:02:00.799Z,78.79
2022-10-05T09:04:38.574Z,78.94
2022-10-05T09:07:43.476Z,79.35
2022-10-05T09:10:58.359Z,79.23
2022-10-05T09:13:45.119Z,79.64
2022-10-05T09:16:20.888Z,79.14
2022-10-05T09:19:25.215Z,79.12
2022-10-05T09:22:02.000Z,79.12
2022-10-05T09:24:48.348Z,79.31
2022-10-05T09:27:20.067Z,78.88
2022-10-05T09:30:05.585Z,78.89
2022-10-05T09:32:52.743Z,78.11
2022-10-05T09:35:40.161Z,77.89
2022-10-05T09:38:17.648Z,77.84
2022-10-05T09:40:50.378Z,77.84
2022-10-05T09:43:16.871Z,77.26
2022-10-05T09:45:58.795Z,77.70
2022-10-05T09:48:58.925Z,77.21
2022-10-05T09:51:52.114Z,78.07
2022-10-05T09:54:36.405Z,76.92
2022-10-05T09:57:18.112Z,78.05
2022-10-05T10:00:08.924Z,77.55
2022-10-05T10:03:24.472Z,77.43
2022-10-05T10:06:00.009Z,76.94
2022-10-05T10:08:38.884Z,77.32
2022-10-05T10:11:24.037Z,76.91
2022-10-05T10:13:56.688Z,76.69
2022-10-05T10:17:00.678Z,76.23
2022-10-05T10:19:36.513Z,76.08
2022-10-05T10:22:09.230Z,75.86
2022-10-05T10:24:44.983Z,75.42
2022-10-05T10:27:28.972Z,75.35
2022-10-05T10:30:13.869Z,75.03
2022-10-05T10:33:02.177Z,74.22
2022-10-05T10:35:41.925Z,74.51
2022-10-05T10:38:28.481Z,74.56
2022-10-05T10:41:16.801Z,74.52
2022-10-05T10:43:57.320Z,73.95
2022-10-05T10:46:45.632Z,74.04
2022-10-05T10:49:49.267Z,72.97
2022-10-05T10:52:29.324Z,71.49
2022-10-05T10:55:23.261Z,70.34
2022-10-05T10:58:12.355Z,69.61
2022-10-05T11:00:49.954Z,68.60
2022-10-05T11:03:31.430Z,68.31
2022-10-05T11:06:19.888Z,67.63
2022-10-05T11:08:46.644Z,66.05
2022-10-05T11:11:41.193Z,65.53
2022-10-05T11:14:32.291Z,65.54
2022-10-05T11:17:33.494Z,64.30
2022-10-05T11:20:37.811Z,64.78
2022-10-05T11:23:35.330Z,62.59
2022-10-05T11:26:14.669Z,63.19
2022-10-05T11:28:50.503Z,62.92
2022-10-05T11:31:26.493Z,62.27
2022-10-05T11:34:21.184Z,62.46
2022-10-05T11:37:10.281Z,61.88
2022-10-05T11:39:58.862Z,61.92
2022-10-05T11:42:59.157Z,61.79
2022-10-05T11:45:31.729Z,62.55
2022-10-05T11:48:16.931Z,61.51
2022-10-05T11:51:10.813Z,61.20
2022-10-05T11:53:43.471Z,60.78
2022-10-05T11:56:23.483Z,60.99
2022-10-05T11:59:20.885Z,61.03
2022-10-05T12:02:33.470Z,61.06
2022-10-05T12:05:21.727Z,59.31
2022-10-05T12:07:54.075Z,59.28
2022-10-05T12:10:32.768Z,58.17
2022-10-05T12:13:19.407Z,58.80
2022-10-05T12:16:18.531Z,58.44
2022-10-05T12:19:08.644Z,58.72
2022-10-05T12:21:47.167Z,57.26
2022-10-05T12:24:26.790Z,57.08
2022-10-05T12:27:07.520Z,56.82
2022-10-05T12:29:57.533Z,56.13
2022-10-05T12:32:41.077Z,54.01
2022-10-05T12:35:46.705Z,52.64
2022-10-05T12:38:30.143Z,50.82
2022-10-05T12:41:21.367Z,50.92
2022-10-05T12:43:50.558Z,50.16
2022-10-05T12:47:00.290Z,51.30
2022-10-05T12:49:42.213Z,50.57
2022-10-05T12:52:47.548Z,49.92
2022-10-05T12:55:43.114Z,50.75
2022-10-05T12:58:38.745Z,50.97
2022-10-05T13:01:34.211Z,50.06
2022-10-05T13:04:19.605Z,49.97
2022-10-05T13:06:46.123Z,50.15
2022-10-05T13:09:24.134Z,49.78
2022-10-05T13:11:58.651Z,48.74
2022-10-05T13:14:53.760Z,49.15
2022-10-05T13:17:44.430Z,48.88
2022-10-05T13:20:21.522Z,48.73
2022-10-05T13:23:13.245Z,48.55
2022-10-05T13:25:52.311Z,47.64
2022-10-05T13:28:24.736Z,46.70
2022-10-05T13:31:09.156Z,46.11
2022-10-05T13:33:56.707Z,45.99
2022-10-05T13:36:35.916Z,44.11
2022-10-05T13:39:29.465Z,41.91
2022-10-05T13:41:59.619Z,41.63
2022-10-05T13:44:30.561Z,40.82
2022-10-05T13:46:59.882Z,40.59
2022-10-05T13:49:49.394Z,40.52
2022-10-05T13:52:44.608Z,40.46
2022-10-05T13:55:21.990Z,40.34
2022-10-05T13:58:06.109Z,39.54
2022-10-05T14:00:48.222Z,39.14
2022-10-05T14:04:03.895Z,39.13
2022-10-05T14:06:33.178Z,38.26
2022-10-05T14:09:00.433Z,38.03
2022-10-05T14:11:32.170Z,37.22
2022-10-05T14:14:04.793Z,37.71
2022-10-05T14:16:33.663Z,36.82
2022-10-05T14:19:06.269Z,36.76
2022-10-05T14:21:47.340Z,36.42
2022-10-05T14:24:42.393Z,36.37
2022-10-05T14:27:55.434Z,35.26
2022-10-05T14:30:25.721Z,34.78
2022-10-05T14:32:56.166Z,35.27
2022-10-05T14:35:30.683Z,35.36
2022-10-05T14:38:02.899Z,35.52
2022-10-05T14:40:38.003Z,35.96
2022-10-05T14:43:16.704Z,35.94
2022-10-05T14:45:57.016Z,36.20
2022-10-05T14:48:27.910Z,34.97
2022-10-05T14:50:56.305Z,35.26
2022-10-05T14:53:25.449Z,34.52
2022-10-05T14:56:14.341Z,34.96
2022-10-05T14:59:04.153Z,33.31
2022-10-05T15:01:35.161Z,33.96
2022-10-05T15:04:30.747Z,33.98
2022-10-05T15:07:12.723Z,34.41
2022-10-05T15:10:06.850Z,34.52
2022-10-05T15:12:38.601Z,33.31
2022-10-05T15:15:22.501Z,32.79
2022-10-05T15:17:55.288Z,33.45
2022-10-05T15:20:37.019Z,33.24
2022-10-05T15:23:16.050Z,34.52
2022-10-05T15:26:08.537Z,33.52
2022-10-05T15:28:51.622Z,33.59
2022-10-05T15:31:39.376Z,33.13
2022-10-05T15:34:26.551Z,33.91
2022-10-05T15:37:01.006Z,33.54
2022-10-05T15:39:27.487Z,32.99
2022-10-05T15:42:03.489Z,33.30
2022-10-05T15:44:34.270Z,33.26
2022-10-05T15:47:09.118Z,33.09
2022-10-05T15:49:38.346Z,33.66
2022-10-05T15:52:04.840Z,33.70
2022-10-05T15:55:11.336Z,33.89
2022-10-05T15:57:43.336Z,34.57
2022-10-05T16:00:15.974Z,35.41
2022-10-05T16:03:00.272Z,36.82
2022-10-05T16:05:57.276Z,38.50
2022-10-05T16:08:51.155Z,40.12
2022-10-05T16:11:58.998Z,41.28
2022-10-05T16:14:32.428Z,43.27
2022-10-05T16:16:58.963Z,44.86
2022-10-05T16:19:52.388Z,46.09
2022-10-05T16:22:39.928Z,47.30
2022-10-05T16:25:22.320Z,47.39
2022-10-05T16:28:16.025Z,47.67
2022-10-05T16:30:45.313Z,48.96
2022-10-05T16:33:38.080Z,49.17
2022-10-05T16:36:25.167Z,50.80
2022-10-05T16:39:00.112Z,52.37
2022-10-05T16:41:34.920Z,52.71
2022-10-05T16:44:13.527Z,54.15
2022-10-05T16:46:45.250Z,54.52
2022-10-05T16:49:50.394Z,55.31
2022-10-05T16:52:21.420Z,56.89
2022-10-05T16:54:55.471Z,57.22
2022-10-05T16:57:43.779Z,57.49
2022-10-05T17:00:34.107Z,58.05
2022-10-05T17:03:36.464Z,58.64
2022-10-05T17:06:05.688Z,58.63
2022-10-05T17:08:49.706Z,59.82
2022-10-05T17:11:50.279Z,60.35
2022-10-05T17:14:20.236Z,61.22
2022-10-05T17:17:15.916Z,61.43
2022-10-05T17:20:29.399Z,61.70
2022-10-05T17:23:05.149Z,62.80
2022-10-05T17:25:42.772Z,63.15
2022-10-05T17:28:18.428Z,63.44
2022-10-05T17:31:07.708Z,63.66
2022-10-05T17:33:54.824Z,63.72
2022-10-05T17:36:21.467Z,64.12
2022-10-05T17:38:51.152Z,64.25
2022-10-05T17:41:20.649Z,64.18
2022-10-05T17:44:05.963Z,64.26
2022-10-05T17:46:45.952Z,63.89
2022-10-05T17:49:37.780Z,64.40
2022-10-05T17:52:45.139Z,64.16
2022-10-05T17:55:26.663Z,63.80
2022-10-05T17:57:54.764Z,63.92
2022-10-05T18:00:56.615Z,64.31
2022-10-05T18:03:42.633Z,64.46
2022-10-05T18:06:28.426Z,64.84
2022-10-05T18:09:13.793Z,65.21
2022-10-05T18:11:48.151Z,65.75
2022-10-05T18:14:27.101Z,66.05
2022-10-05T18:17:03.463Z,66.36
2022-10-05T18:19:32.385Z,67.11
2022-10-05T18:22:25.111Z,66.97
2022-10-05T18:24:55.963Z,67.36
2022-10-05T18:27:34.164Z,68.05
2022-10-05T18:30:05.179Z,68.92
2022-10-05T18:32:47.744Z,69.15
2022-10-05T18:35:21.653Z,68.92
2022-10-05T18:38:13.309Z,69.43
2022-10-05T18:41:16.556Z,69.73
2022-10-05T18:44:13.467Z,68.89
2022-10-05T18:46:46.078Z,68.98
2022-10-05T18:49:40.458Z,68.75
2022-10-05T18:52:16.416Z,69.10
2022-10-05T18:55:02.664Z,68.02
2022-10-05T18:57:43.747Z,67.32
2022-10-05T19:00:22.446Z,67.23
2022-10-05T19:03:08.292Z,67.31
2022-10-05T19:06:13.406Z,66.54
2022-10-05T19:09:04.197Z,66.77
2022-10-05T19:11:49.792Z,66.39
2022-10-05T19:14:42.346Z,65.89
2022-10-05T19:17:25.876Z,66.32
2022-10-05T19:20:04.009Z,65.70
2022-10-05T19:22:49.325Z,65.86
2022-10-05T19:25:37.637Z,66.01
2022-10-05T19:28:26.058Z,66.48
2022-10-05T19:31:11.585Z,66.62
2022-10-05T19:34:03.365Z,66.50
2022-10-05T19:36:52.888Z,66.75
2022-10-05T19:39:39.031Z,67.80
2022-10-05T19:42:11.619Z,68.28
2022-10-05T19:44:52.312Z,67.90
2022-10-05T19:48:03.149Z,68.95
2022-10-05T19:50:33.574Z,69.24
2022-10-05T19:53:04.179Z,69.39
2022-10-05T19:55:42.079Z,69.41
2022-10-05T19:58:27.158Z,70.04
2022-10-05T20:01:03.146Z,70.25
2022-10-05T20:03:32.423Z,70.33
2022-10-05T20:06:01.535Z,71.17
2022-10-05T20:08:39.739Z,71.06
2022-10-05T20:11:20.986Z,71.15
2022-10-05T20:14:09.491Z,71.08
2022-10-05T20:16:55.429Z,70.37
2022-10-05T20:19:49.721Z,70.86
2022-10-05T20:22:35.371Z,71.49
2022-10-05T20:25:28.867Z,71.05
2022-10-05T20:27:56.809Z,71.81
2022-10-05T20:30:25.854Z,71.69
2022-10-05T20:32:57.645Z,72.30
2022-10-05T20:35:27.790Z,72.86
2022-10-05T20:37:59.937Z,73.09
2022-10-05T20:40:29.066Z,72.79
2022-10-05T20:42:56.871Z,73.45
2022-10-05T20:45:23.471Z,73.57
2022-10-05T20:47:50.737Z,73.50
2022-10-05T20:50:17.519Z,73.55
2022-10-05T20:52:44.061Z,73.66
2022-10-05T20:55:11.947Z,73.88
2022-10-05T20:57:42.048Z,73.87
2022-10-05T21:00:10.975Z,73.91
2022-10-05T21:02:38.610Z,74.13
2022-10-05T21:05:05.829Z,74.34
2022-10-05T21:07:34.244Z,74.54
2022-10-05T21:10:09.977Z,74.75
2022-10-05T21:12:36.951Z,75.25
2022-10-05T21:15:04.725Z,74.63
2022-10-05T21:17:32.299Z,74.97
2022-10-05T21:19:59.916Z,75.34
2022-10-05T21:22:26.490Z,75.64
2022-10-05T21:24:55.094Z,75.62
2022-10-05T21:27:21.656Z,75.99
2022-10-05T21:29:48.164Z,75.80
2022-10-05T21:32:14.767Z,75.22
2022-10-05T21:34:41.371Z,76.07
2022-10-05T21:37:08.722Z,75.93
2022-10-05T21:39:36.568Z,75.38
2022-10-05T21:42:03.575Z,75.54
2022-10-05T21:44:30.113Z,75.77
2022-10-05T21:46:56.727Z,76.34
2022-10-05T21:49:24.043Z,76.71
2022-10-05T21:51:50.636Z,76.75
2022-10-05T21:54:21.094Z,76.92
2022-10-05T21:56:51.547Z,75.97
2022-10-05T21:59:21.870Z,76.53
2022-10-05T22:01:48.448Z,76.39
2022-10-05T22:04:15.167Z,76.20
2022-10-05T22:06:42.160Z,76.62
2022-10-05T22:09:08.906Z,76.33
2022-10-05T22:11:35.507Z,75.97
2022-10-05T22:14:04.697Z,76.60
2022-10-05T22:16:35.188Z,75.52
2022-10-05T22:19:10.452Z,75.65
2022-10-05T22:21:41.455Z,76.03
2022-10-05T22:24:09.398Z,76.42
2022-10-05T22:26:36.133Z,76.38
2022-10-05T22:29:03.462Z,76.30
2022-10-05T22:31:30.305Z,77.06
2022-10-05T22:33:56.884Z,77.35
2022-10-05T22:36:23.694Z,77.84
2022-10-05T22:38:50.391Z,77.78
2022-10-05T22:41:18.475Z,78.01
2022-10-05T22:43:48.712Z,78.30
2022-10-05T22:46:16.160Z,78.13
2022-10-05T22:48:43.202Z,78.58
2022-10-05T22:51:10.179Z,78.80
2022-10-05T22:53:36.854Z,78.67
2022-10-05T22:56:08.011Z,79.23
2022-10-05T22:58:35.069Z,79.21
2022-10-05T23:01:04.458Z,79.44
2022-10-05T23:03:32.189Z,78.60
2022-10-05T23:06:03.103Z,78.91
2022-10-05T23:08:31.718Z,78.83
2022-10-05T23:11:16.786Z,78.18
2022-10-05T23:13:43.712Z,78.93
2022-10-05T23:16:12.755Z,78.53
2022-10-05T23:18:40.479Z,78.64
2022-10-05T23:21:08.570Z,77.45
2022-10-05T23:23:44.051Z,77.59
2022-10-05T23:26:11.427Z,77.62
2022-10-05T23:28:46.298Z,76.36
2022-10-05T23:31:15.807Z,76.02
2022-10-05T23:33:42.433Z,75.50
2022-10-05T23:36:13.423Z,75.45
2022-10-05T23:38:40.010Z,73.99
2022-10-05T23:41:07.581Z,71.76
2022-10-05T23:43:35.127Z,70.87
2022-10-05T23:46:02.612Z,69.20
2022-10-05T23:48:30.075Z,68.70
2022-10-05T23:50:57.660Z,68.33
2022-10-05T23:53:24.371Z,67.97
2022-10-05T23:55:54.500Z,67.86
2022-10-05T23:58:22.507Z,67.81
